Middle Georgia Regional Airport Airport (MCN)

 

Airport Diagram
Current Weather/Forecast (VFR Conditions)
METAR KMCN 231253Z 19007KT 10SM SCT014 26/21 A3025 RMK AO2 SLP239 T02560206
TAF KMCN 231132Z 2312/2412 13005KT P6SM BKN012 FM231500 15006KT P6SM SCT035 SCT050 FM231900 16006KT P6SM SCT050 FM240100 VRB03KT P6SM FEW060

All Charts
General
Chart Name Download
AIRPORT DIAGRAM
TAKEOFF MINIMUMS
ALTERNATE MINIMUMS

Approaches
Chart Name Download
ILS OR LOC RWY 05
ILS RWY 05 (SA CAT I - II)
RNAV (GPS) RWY 05
RNAV (GPS) RWY 14
RNAV (GPS) RWY 23
RNAV (GPS) RWY 32
VOR RWY 14
VOR RWY 23


Inbound Traffic (Arrivals)

No inbound traffic.


Outbound Traffic (Departures)

No outbound traffic.